This is the latest recevied weather packets stored in our database for station/object K8RRT. If no packets are shown the sender has not sent any weather packets the latest 10 day(s).
| Time | Temp. | Humidity | Pressure | Rain* | Wind** | Luminosity | Snow |
|---|---|---|---|---|---|---|---|
| 1777986310 | 20.56° C | 61% | 1007.8 hPa | 0 mm | - | 348 W/m² | - |
| 1777986009 | 20° C | 59% | 1008 hPa | 0 mm | - | 333 W/m² | - |
| 1777985705 | 20° C | 60% | 1008.1 hPa | 0 mm | - | 292 W/m² | - |
| 1777985401 | 19.44° C | 60% | 1007.9 hPa | 0 mm | - | 248 W/m² | - |
| 1777985098 | 20° C | 60% | 1008.3 hPa | 0 mm | - | 105 W/m² | - |
| 1777984794 | 20° C | 60% | 1007.9 hPa | 0 mm | - | 335 W/m² | - |
| 1777984491 | 20° C | 60% | 1008 hPa | 0 mm | - | 285 W/m² | - |
| 1777984187 | 19.44° C | 60% | 1007.9 hPa | 0 mm | - | 269 W/m² | - |
| 1777983884 | 19.44° C | 61% | 1008.1 hPa | 0 mm | - | 138 W/m² | - |
| 1777983581 | 19.44° C | 61% | 1007.9 hPa | 0 mm | - | 111 W/m² | - |
| 1777983278 | 18.89° C | 61% | 1007.9 hPa | 0 mm | - | 106 W/m² | - |
| 1777982973 | 18.89° C | 61% | 1007.9 hPa | 0 mm | - | 111 W/m² | - |
| 1777982670 | 18.89° C | 61% | 1007.6 hPa | 0 mm | - | 134 W/m² | - |
| 1777982369 | 18.89° C | 62% | 1007.6 hPa | 0 mm | - | 104 W/m² | - |
| 1777982066 | 18.89° C | 61% | 1007.4 hPa | 0 mm | - | 157 W/m² | - |
| 1777981764 | 18.89° C | 62% | 1007.6 hPa | 0 mm | - | 136 W/m² | - |
| 1777981460 | 18.33° C | 62% | 1007.4 hPa | 0 mm | - | 109 W/m² | - |
| 1777981156 | 18.33° C | 64% | 1007.3 hPa | 0 mm | - | 67 W/m² | - |
| 1777980853 | 18.33° C | 62% | 1007.5 hPa | 0 mm | - | 65 W/m² | - |
| 1777980549 | 18.33° C | 63% | 1007.3 hPa | 0 mm | - | 76 W/m² | - |
| 1777980247 | 17.78° C | 64% | 1007 hPa | 0 mm | - | 69 W/m² | - |
| 1777979943 | 17.22° C | 65% | 1007.1 hPa | 0 mm | - | 49 W/m² | - |
| 1777979637 | 17.22° C | 65% | 1007 hPa | 0 mm | - | 29 W/m² | - |
| 1777979334 | 17.22° C | 65% | 1007.2 hPa | 0 mm | - | 19 W/m² | - |
| 1777979031 | 17.22° C | 65% | 1007 hPa | 0 mm | - | 16 W/m² | - |
* Rain latest hour (hover to see other rain measurements)
** Current wind speed in m/s (hover to see current wind gust speed)